sensor_id;sensor_type;location;lat;lon;timestamp;P1;durP1;ratioP1;P2;durP2;ratioP2
84343;SDS011;74531;43.224;0.132;2023-12-20T00:01:54;11.57;;;8.88;;
84343;SDS011;74531;43.224;0.132;2023-12-20T00:04:20;12.07;;;8.48;;
84343;SDS011;74531;43.224;0.132;2023-12-20T00:06:46;11.60;;;8.23;;
84343;SDS011;74531;43.224;0.132;2023-12-20T00:09:12;13.38;;;8.45;;
84343;SDS011;74531;43.224;0.132;2023-12-20T00:11:39;11.95;;;7.80;;
84343;SDS011;74531;43.224;0.132;2023-12-20T00:14:07;11.93;;;7.80;;
84343;SDS011;74531;43.224;0.132;2023-12-20T00:16:33;11.02;;;7.78;;
84343;SDS011;74531;43.224;0.132;2023-12-20T00:18:59;10.50;;;6.93;;
84343;SDS011;74531;43.224;0.132;2023-12-20T00:21:25;8.93;;;7.00;;
84343;SDS011;74531;43.224;0.132;2023-12-20T00:23:51;8.75;;;5.90;;
84343;SDS011;74531;43.224;0.132;2023-12-20T00:26:18;10.20;;;6.35;;
84343;SDS011;74531;43.224;0.132;2023-12-20T00:28:44;10.48;;;6.35;;
84343;SDS011;74531;43.224;0.132;2023-12-20T00:31:10;8.88;;;5.85;;
84343;SDS011;74531;43.224;0.132;2023-12-20T00:33:36;9.23;;;6.22;;
84343;SDS011;74531;43.224;0.132;2023-12-20T00:36:02;9.35;;;6.10;;
84343;SDS011;74531;43.224;0.132;2023-12-20T00:38:28;8.02;;;5.75;;
84343;SDS011;74531;43.224;0.132;2023-12-20T00:40:55;8.05;;;4.97;;
84343;SDS011;74531;43.224;0.132;2023-12-20T00:43:21;8.27;;;5.18;;
84343;SDS011;74531;43.224;0.132;2023-12-20T00:45:47;7.57;;;5.18;;
84343;SDS011;74531;43.224;0.132;2023-12-20T00:48:13;7.45;;;5.32;;
84343;SDS011;74531;43.224;0.132;2023-12-20T00:50:39;7.55;;;4.93;;
84343;SDS011;74531;43.224;0.132;2023-12-20T00:53:05;7.78;;;4.95;;
84343;SDS011;74531;43.224;0.132;2023-12-20T00:55:31;7.00;;;5.28;;
84343;SDS011;74531;43.224;0.132;2023-12-20T00:57:57;6.95;;;5.05;;
84343;SDS011;74531;43.224;0.132;2023-12-20T01:00:25;6.75;;;4.82;;
84343;SDS011;74531;43.224;0.132;2023-12-20T01:02:51;7.28;;;4.65;;
84343;SDS011;74531;43.224;0.132;2023-12-20T01:05:20;9.43;;;5.20;;
84343;SDS011;74531;43.224;0.132;2023-12-20T01:07:49;6.93;;;4.80;;
84343;SDS011;74531;43.224;0.132;2023-12-20T01:10:15;6.22;;;4.82;;
84343;SDS011;74531;43.224;0.132;2023-12-20T01:12:42;7.88;;;5.47;;
84343;SDS011;74531;43.224;0.132;2023-12-20T01:15:09;8.70;;;5.57;;
84343;SDS011;74531;43.224;0.132;2023-12-20T01:17:35;8.48;;;5.20;;
84343;SDS011;74531;43.224;0.132;2023-12-20T01:20:01;7.43;;;5.38;;
84343;SDS011;74531;43.224;0.132;2023-12-20T01:22:27;8.32;;;5.70;;
84343;SDS011;74531;43.224;0.132;2023-12-20T01:24:54;7.72;;;5.18;;
84343;SDS011;74531;43.224;0.132;2023-12-20T01:27:20;9.07;;;5.60;;
84343;SDS011;74531;43.224;0.132;2023-12-20T01:29:46;7.38;;;5.22;;
84343;SDS011;74531;43.224;0.132;2023-12-20T01:32:12;7.13;;;5.05;;
84343;SDS011;74531;43.224;0.132;2023-12-20T01:34:38;7.45;;;4.72;;
84343;SDS011;74531;43.224;0.132;2023-12-20T01:37:04;7.55;;;4.63;;
84343;SDS011;74531;43.224;0.132;2023-12-20T01:39:30;7.57;;;5.00;;
84343;SDS011;74531;43.224;0.132;2023-12-20T01:41:57;8.57;;;5.07;;
84343;SDS011;74531;43.224;0.132;2023-12-20T01:44:23;7.32;;;4.40;;
84343;SDS011;74531;43.224;0.132;2023-12-20T01:46:49;6.97;;;4.80;;
84343;SDS011;74531;43.224;0.132;2023-12-20T01:49:16;7.65;;;5.30;;
84343;SDS011;74531;43.224;0.132;2023-12-20T01:51:42;7.75;;;4.90;;
84343;SDS011;74531;43.224;0.132;2023-12-20T01:54:09;7.05;;;4.95;;
84343;SDS011;74531;43.224;0.132;2023-12-20T01:56:35;8.27;;;5.40;;
84343;SDS011;74531;43.224;0.132;2023-12-20T01:59:01;7.88;;;5.00;;
84343;SDS011;74531;43.224;0.132;2023-12-20T02:01:29;7.95;;;4.75;;
84343;SDS011;74531;43.224;0.132;2023-12-20T02:03:56;6.53;;;4.88;;
84343;SDS011;74531;43.224;0.132;2023-12-20T02:06:22;7.45;;;4.90;;
84343;SDS011;74531;43.224;0.132;2023-12-20T02:08:49;7.20;;;4.90;;
84343;SDS011;74531;43.224;0.132;2023-12-20T02:11:16;8.32;;;5.25;;
84343;SDS011;74531;43.224;0.132;2023-12-20T02:13:42;7.40;;;5.28;;
84343;SDS011;74531;43.224;0.132;2023-12-20T02:16:08;8.50;;;5.43;;
84343;SDS011;74531;43.224;0.132;2023-12-20T02:18:34;9.10;;;5.65;;
84343;SDS011;74531;43.224;0.132;2023-12-20T02:21:00;7.75;;;5.53;;
84343;SDS011;74531;43.224;0.132;2023-12-20T02:23:26;7.88;;;5.95;;
84343;SDS011;74531;43.224;0.132;2023-12-20T02:25:53;8.63;;;6.00;;
84343;SDS011;74531;43.224;0.132;2023-12-20T02:28:19;8.02;;;5.90;;
84343;SDS011;74531;43.224;0.132;2023-12-20T02:30:46;8.55;;;6.30;;
84343;SDS011;74531;43.224;0.132;2023-12-20T02:33:14;9.43;;;6.38;;
84343;SDS011;74531;43.224;0.132;2023-12-20T02:35:41;9.20;;;5.82;;
84343;SDS011;74531;43.224;0.132;2023-12-20T02:38:07;9.52;;;6.85;;
84343;SDS011;74531;43.224;0.132;2023-12-20T02:40:33;8.20;;;6.32;;
84343;SDS011;74531;43.224;0.132;2023-12-20T02:42:59;10.10;;;6.63;;
84343;SDS011;74531;43.224;0.132;2023-12-20T02:45:26;9.32;;;6.55;;
84343;SDS011;74531;43.224;0.132;2023-12-20T02:47:52;9.75;;;7.22;;
84343;SDS011;74531;43.224;0.132;2023-12-20T02:50:18;11.60;;;7.93;;
84343;SDS011;74531;43.224;0.132;2023-12-20T02:52:45;12.00;;;7.85;;
84343;SDS011;74531;43.224;0.132;2023-12-20T02:55:11;12.05;;;8.07;;
84343;SDS011;74531;43.224;0.132;2023-12-20T02:57:37;12.48;;;8.23;;
84343;SDS011;74531;43.224;0.132;2023-12-20T03:00:07;11.90;;;8.93;;
84343;SDS011;74531;43.224;0.132;2023-12-20T03:02:34;12.07;;;9.00;;
84343;SDS011;74531;43.224;0.132;2023-12-20T03:05:00;12.68;;;8.60;;
84343;SDS011;74531;43.224;0.132;2023-12-20T03:07:26;16.88;;;10.27;;
84343;SDS011;74531;43.224;0.132;2023-12-20T03:09:53;15.60;;;9.95;;
84343;SDS011;74531;43.224;0.132;2023-12-20T03:12:19;11.63;;;8.93;;
84343;SDS011;74531;43.224;0.132;2023-12-20T03:14:45;13.18;;;9.13;;
84343;SDS011;74531;43.224;0.132;2023-12-20T03:17:11;14.60;;;9.00;;
84343;SDS011;74531;43.224;0.132;2023-12-20T03:19:37;12.38;;;8.60;;
84343;SDS011;74531;43.224;0.132;2023-12-20T03:22:03;14.10;;;9.23;;
84343;SDS011;74531;43.224;0.132;2023-12-20T03:24:29;11.88;;;8.70;;
84343;SDS011;74531;43.224;0.132;2023-12-20T03:26:56;12.00;;;7.65;;
84343;SDS011;74531;43.224;0.132;2023-12-20T03:29:22;14.20;;;8.32;;
84343;SDS011;74531;43.224;0.132;2023-12-20T03:31:48;11.63;;;7.80;;
84343;SDS011;74531;43.224;0.132;2023-12-20T03:34:14;12.25;;;7.68;;
84343;SDS011;74531;43.224;0.132;2023-12-20T03:36:40;12.82;;;7.75;;
84343;SDS011;74531;43.224;0.132;2023-12-20T03:39:06;12.68;;;7.85;;
84343;SDS011;74531;43.224;0.132;2023-12-20T03:41:33;11.68;;;7.50;;
84343;SDS011;74531;43.224;0.132;2023-12-20T03:43:59;13.25;;;8.27;;
84343;SDS011;74531;43.224;0.132;2023-12-20T03:46:26;12.55;;;7.80;;
84343;SDS011;74531;43.224;0.132;2023-12-20T03:48:52;13.35;;;8.23;;
84343;SDS011;74531;43.224;0.132;2023-12-20T03:51:18;11.85;;;7.13;;
84343;SDS011;74531;43.224;0.132;2023-12-20T03:53:44;13.48;;;7.55;;
84343;SDS011;74531;43.224;0.132;2023-12-20T03:56:10;12.07;;;7.60;;
84343;SDS011;74531;43.224;0.132;2023-12-20T03:58:36;13.98;;;7.90;;
84343;SDS011;74531;43.224;0.132;2023-12-20T04:01:03;12.18;;;7.38;;
84343;SDS011;74531;43.224;0.132;2023-12-20T04:03:29;10.48;;;6.65;;
84343;SDS011;74531;43.224;0.132;2023-12-20T04:05:55;11.15;;;6.88;;
84343;SDS011;74531;43.224;0.132;2023-12-20T04:08:21;11.80;;;7.05;;
84343;SDS011;74531;43.224;0.132;2023-12-20T04:10:47;10.93;;;6.38;;
84343;SDS011;74531;43.224;0.132;2023-12-20T04:13:13;14.38;;;6.85;;
84343;SDS011;74531;43.224;0.132;2023-12-20T04:15:39;12.88;;;6.63;;
84343;SDS011;74531;43.224;0.132;2023-12-20T04:18:05;10.35;;;5.80;;
84343;SDS011;74531;43.224;0.132;2023-12-20T04:20:32;9.05;;;5.63;;
84343;SDS011;74531;43.224;0.132;2023-12-20T04:22:58;13.05;;;6.70;;
84343;SDS011;74531;43.224;0.132;2023-12-20T04:25:24;10.82;;;5.97;;
84343;SDS011;74531;43.224;0.132;2023-12-20T04:27:50;9.52;;;5.38;;
84343;SDS011;74531;43.224;0.132;2023-12-20T04:30:16;9.48;;;5.43;;
84343;SDS011;74531;43.224;0.132;2023-12-20T04:32:43;10.00;;;5.00;;
84343;SDS011;74531;43.224;0.132;2023-12-20T04:35:09;7.45;;;3.90;;
84343;SDS011;74531;43.224;0.132;2023-12-20T04:37:35;10.68;;;4.07;;
84343;SDS011;74531;43.224;0.132;2023-12-20T04:40:01;5.65;;;2.75;;
84343;SDS011;74531;43.224;0.132;2023-12-20T04:42:28;5.32;;;2.80;;
84343;SDS011;74531;43.224;0.132;2023-12-20T04:44:54;6.22;;;2.67;;
84343;SDS011;74531;43.224;0.132;2023-12-20T04:47:20;5.47;;;2.55;;
84343;SDS011;74531;43.224;0.132;2023-12-20T04:49:46;5.53;;;2.38;;
84343;SDS011;74531;43.224;0.132;2023-12-20T04:52:13;5.00;;;2.03;;
84343;SDS011;74531;43.224;0.132;2023-12-20T04:54:40;3.97;;;2.08;;
84343;SDS011;74531;43.224;0.132;2023-12-20T04:57:06;4.78;;;2.17;;
84343;SDS011;74531;43.224;0.132;2023-12-20T04:59:32;4.30;;;2.08;;
84343;SDS011;74531;43.224;0.132;2023-12-20T05:01:58;6.38;;;2.13;;
84343;SDS011;74531;43.224;0.132;2023-12-20T05:04:24;4.20;;;2.13;;
84343;SDS011;74531;43.224;0.132;2023-12-20T05:06:51;5.07;;;2.28;;
84343;SDS011;74531;43.224;0.132;2023-12-20T05:09:17;5.70;;;1.92;;
84343;SDS011;74531;43.224;0.132;2023-12-20T05:11:43;3.72;;;1.95;;
84343;SDS011;74531;43.224;0.132;2023-12-20T05:14:09;3.85;;;1.80;;
84343;SDS011;74531;43.224;0.132;2023-12-20T05:16:35;4.82;;;2.17;;
84343;SDS011;74531;43.224;0.132;2023-12-20T05:19:01;3.83;;;1.88;;
84343;SDS011;74531;43.224;0.132;2023-12-20T05:21:31;4.32;;;2.20;;
84343;SDS011;74531;43.224;0.132;2023-12-20T05:23:58;4.85;;;1.83;;
84343;SDS011;74531;43.224;0.132;2023-12-20T05:26:25;4.97;;;1.95;;
84343;SDS011;74531;43.224;0.132;2023-12-20T05:28:51;3.72;;;1.58;;
84343;SDS011;74531;43.224;0.132;2023-12-20T05:31:17;3.15;;;1.42;;
84343;SDS011;74531;43.224;0.132;2023-12-20T05:33:43;3.70;;;1.80;;
84343;SDS011;74531;43.224;0.132;2023-12-20T05:36:10;4.63;;;1.65;;
84343;SDS011;74531;43.224;0.132;2023-12-20T05:38:38;6.22;;;2.00;;
84343;SDS011;74531;43.224;0.132;2023-12-20T05:41:04;4.55;;;1.80;;
84343;SDS011;74531;43.224;0.132;2023-12-20T05:43:31;4.00;;;1.58;;
84343;SDS011;74531;43.224;0.132;2023-12-20T05:45:57;4.30;;;1.65;;
84343;SDS011;74531;43.224;0.132;2023-12-20T05:48:24;4.40;;;1.58;;
84343;SDS011;74531;43.224;0.132;2023-12-20T05:50:50;4.13;;;1.48;;
84343;SDS011;74531;43.224;0.132;2023-12-20T05:53:16;2.90;;;1.40;;
84343;SDS011;74531;43.224;0.132;2023-12-20T05:55:42;3.42;;;1.42;;
84343;SDS011;74531;43.224;0.132;2023-12-20T05:58:08;3.85;;;1.60;;
84343;SDS011;74531;43.224;0.132;2023-12-20T06:00:34;3.80;;;1.70;;
84343;SDS011;74531;43.224;0.132;2023-12-20T06:03:00;5.20;;;1.80;;
84343;SDS011;74531;43.224;0.132;2023-12-20T06:05:27;5.90;;;2.20;;
84343;SDS011;74531;43.224;0.132;2023-12-20T06:07:53;4.03;;;1.92;;
84343;SDS011;74531;43.224;0.132;2023-12-20T06:10:21;4.07;;;1.98;;
84343;SDS011;74531;43.224;0.132;2023-12-20T06:12:47;3.63;;;1.90;;
84343;SDS011;74531;43.224;0.132;2023-12-20T06:15:15;4.43;;;1.98;;
84343;SDS011;74531;43.224;0.132;2023-12-20T06:17:41;7.55;;;3.60;;
84343;SDS011;74531;43.224;0.132;2023-12-20T06:20:07;8.40;;;4.70;;
84343;SDS011;74531;43.224;0.132;2023-12-20T06:22:34;7.18;;;3.80;;
84343;SDS011;74531;43.224;0.132;2023-12-20T06:25:01;7.50;;;4.28;;
84343;SDS011;74531;43.224;0.132;2023-12-20T06:27:28;6.50;;;3.10;;
84343;SDS011;74531;43.224;0.132;2023-12-20T06:29:54;5.18;;;2.92;;
84343;SDS011;74531;43.224;0.132;2023-12-20T06:32:20;6.60;;;3.75;;
84343;SDS011;74531;43.224;0.132;2023-12-20T06:34:48;7.53;;;4.63;;
84343;SDS011;74531;43.224;0.132;2023-12-20T06:37:14;5.95;;;3.55;;
84343;SDS011;74531;43.224;0.132;2023-12-20T06:39:40;5.85;;;3.60;;
84343;SDS011;74531;43.224;0.132;2023-12-20T06:42:06;4.70;;;2.25;;
84343;SDS011;74531;43.224;0.132;2023-12-20T06:44:32;4.70;;;2.72;;
84343;SDS011;74531;43.224;0.132;2023-12-20T06:46:59;6.05;;;2.63;;
84343;SDS011;74531;43.224;0.132;2023-12-20T06:49:26;4.70;;;2.75;;
84343;SDS011;74531;43.224;0.132;2023-12-20T06:51:52;6.05;;;2.97;;
84343;SDS011;74531;43.224;0.132;2023-12-20T06:54:18;5.40;;;2.90;;
84343;SDS011;74531;43.224;0.132;2023-12-20T06:56:45;6.22;;;2.70;;
84343;SDS011;74531;43.224;0.132;2023-12-20T06:59:11;5.30;;;3.03;;
84343;SDS011;74531;43.224;0.132;2023-12-20T07:01:37;5.47;;;2.83;;
84343;SDS011;74531;43.224;0.132;2023-12-20T07:04:04;6.70;;;3.22;;
84343;SDS011;74531;43.224;0.132;2023-12-20T07:06:31;5.60;;;3.17;;
84343;SDS011;74531;43.224;0.132;2023-12-20T07:08:57;5.53;;;2.90;;
84343;SDS011;74531;43.224;0.132;2023-12-20T07:11:23;5.45;;;2.80;;
84343;SDS011;74531;43.224;0.132;2023-12-20T07:13:49;5.53;;;2.53;;
84343;SDS011;74531;43.224;0.132;2023-12-20T07:16:16;4.55;;;2.70;;
84343;SDS011;74531;43.224;0.132;2023-12-20T07:18:42;4.95;;;2.70;;
84343;SDS011;74531;43.224;0.132;2023-12-20T07:21:08;6.07;;;3.47;;
84343;SDS011;74531;43.224;0.132;2023-12-20T07:23:34;4.95;;;3.13;;
84343;SDS011;74531;43.224;0.132;2023-12-20T07:26:01;5.90;;;3.58;;
84343;SDS011;74531;43.224;0.132;2023-12-20T07:28:27;7.30;;;4.85;;
84343;SDS011;74531;43.224;0.132;2023-12-20T07:30:53;7.10;;;4.50;;
84343;SDS011;74531;43.224;0.132;2023-12-20T07:33:19;8.90;;;5.13;;
84343;SDS011;74531;43.224;0.132;2023-12-20T07:35:45;9.13;;;5.00;;
84343;SDS011;74531;43.224;0.132;2023-12-20T07:38:11;7.43;;;4.72;;
84343;SDS011;74531;43.224;0.132;2023-12-20T07:40:37;8.73;;;4.90;;
84343;SDS011;74531;43.224;0.132;2023-12-20T07:43:04;8.82;;;4.72;;
84343;SDS011;74531;43.224;0.132;2023-12-20T07:45:30;8.63;;;5.18;;
84343;SDS011;74531;43.224;0.132;2023-12-20T07:47:56;8.35;;;5.20;;
84343;SDS011;74531;43.224;0.132;2023-12-20T07:50:22;8.68;;;4.60;;
84343;SDS011;74531;43.224;0.132;2023-12-20T07:52:48;30.73;;;28.00;;
84343;SDS011;74531;43.224;0.132;2023-12-20T07:55:15;1094.72;;;759.88;;
84343;SDS011;74531;43.224;0.132;2023-12-20T07:57:41;800.47;;;595.75;;
84343;SDS011;74531;43.224;0.132;2023-12-20T08:00:08;992.50;;;680.78;;
84343;SDS011;74531;43.224;0.132;2023-12-20T08:02:34;432.13;;;370.83;;
84343;SDS011;74531;43.224;0.132;2023-12-20T08:05:00;784.17;;;646.28;;
84343;SDS011;74531;43.224;0.132;2023-12-20T08:07:26;357.45;;;321.77;;
84343;SDS011;74531;43.224;0.132;2023-12-20T08:09:53;248.23;;;221.57;;
84343;SDS011;74531;43.224;0.132;2023-12-20T08:12:20;270.13;;;239.73;;
84343;SDS011;74531;43.224;0.132;2023-12-20T08:14:46;197.65;;;177.15;;
84343;SDS011;74531;43.224;0.132;2023-12-20T08:17:12;113.10;;;97.32;;
84343;SDS011;74531;43.224;0.132;2023-12-20T08:19:41;46.83;;;41.90;;
84343;SDS011;74531;43.224;0.132;2023-12-20T08:22:09;285.35;;;192.80;;
84343;SDS011;74531;43.224;0.132;2023-12-20T08:24:35;385.23;;;298.08;;
84343;SDS011;74531;43.224;0.132;2023-12-20T08:27:02;666.33;;;547.25;;
84343;SDS011;74531;43.224;0.132;2023-12-20T08:29:29;380.52;;;289.80;;
84343;SDS011;74531;43.224;0.132;2023-12-20T08:31:55;507.70;;;421.98;;
84343;SDS011;74531;43.224;0.132;2023-12-20T08:34:23;441.45;;;394.83;;
84343;SDS011;74531;43.224;0.132;2023-12-20T08:36:52;110.65;;;100.05;;
84343;SDS011;74531;43.224;0.132;2023-12-20T08:39:20;132.93;;;118.60;;
84343;SDS011;74531;43.224;0.132;2023-12-20T08:41:46;121.88;;;109.28;;
84343;SDS011;74531;43.224;0.132;2023-12-20T08:44:16;186.13;;;169.02;;
84343;SDS011;74531;43.224;0.132;2023-12-20T08:46:43;144.50;;;130.27;;
84343;SDS011;74531;43.224;0.132;2023-12-20T08:49:09;241.20;;;217.65;;
84343;SDS011;74531;43.224;0.132;2023-12-20T08:51:36;47.95;;;42.92;;
84343;SDS011;74531;43.224;0.132;2023-12-20T08:54:05;47.63;;;41.40;;
84343;SDS011;74531;43.224;0.132;2023-12-20T08:56:33;37.85;;;29.95;;
84343;SDS011;74531;43.224;0.132;2023-12-20T08:58:59;136.15;;;121.65;;
84343;SDS011;74531;43.224;0.132;2023-12-20T09:01:25;146.45;;;123.03;;
84343;SDS011;74531;43.224;0.132;2023-12-20T09:03:52;123.40;;;95.35;;
84343;SDS011;74531;43.224;0.132;2023-12-20T09:06:18;390.30;;;345.45;;
84343;SDS011;74531;43.224;0.132;2023-12-20T09:08:44;288.38;;;257.50;;
84343;SDS011;74531;43.224;0.132;2023-12-20T09:11:10;103.72;;;94.25;;
84343;SDS011;74531;43.224;0.132;2023-12-20T09:13:36;112.38;;;103.13;;
84343;SDS011;74531;43.224;0.132;2023-12-20T09:16:03;13.50;;;10.68;;
84343;SDS011;74531;43.224;0.132;2023-12-20T09:18:29;10.65;;;9.50;;
84343;SDS011;74531;43.224;0.132;2023-12-20T09:20:56;8.60;;;4.50;;
84343;SDS011;74531;43.224;0.132;2023-12-20T09:23:23;8.25;;;5.65;;
84343;SDS011;74531;43.224;0.132;2023-12-20T09:25:49;8.27;;;6.07;;
84343;SDS011;74531;43.224;0.132;2023-12-20T09:28:15;12.85;;;8.45;;
84343;SDS011;74531;43.224;0.132;2023-12-20T09:30:41;13.63;;;12.20;;
84343;SDS011;74531;43.224;0.132;2023-12-20T09:33:09;15.07;;;10.48;;
84343;SDS011;74531;43.224;0.132;2023-12-20T09:35:36;10.90;;;6.40;;
84343;SDS011;74531;43.224;0.132;2023-12-20T09:38:02;8.68;;;7.10;;
84343;SDS011;74531;43.224;0.132;2023-12-20T09:40:28;17.98;;;13.88;;
84343;SDS011;74531;43.224;0.132;2023-12-20T09:42:58;8.13;;;6.88;;
84343;SDS011;74531;43.224;0.132;2023-12-20T09:45:27;16.80;;;14.23;;
84343;SDS011;74531;43.224;0.132;2023-12-20T09:47:53;13.57;;;12.18;;
84343;SDS011;74531;43.224;0.132;2023-12-20T09:50:21;11.95;;;10.70;;
84343;SDS011;74531;43.224;0.132;2023-12-20T09:52:49;36.03;;;32.47;;
84343;SDS011;74531;43.224;0.132;2023-12-20T09:55:20;395.10;;;358.63;;
84343;SDS011;74531;43.224;0.132;2023-12-20T09:57:47;523.85;;;478.08;;
84343;SDS011;74531;43.224;0.132;2023-12-20T10:00:14;470.55;;;428.88;;
84343;SDS011;74531;43.224;0.132;2023-12-20T10:02:59;285.77;;;255.70;;
84343;SDS011;74531;43.224;0.132;2023-12-20T10:05:32;37.17;;;33.33;;
84343;SDS011;74531;43.224;0.132;2023-12-20T10:07:59;70.07;;;62.97;;
84343;SDS011;74531;43.224;0.132;2023-12-20T10:10:25;15.88;;;13.48;;
84343;SDS011;74531;43.224;0.132;2023-12-20T10:13:01;11.38;;;9.82;;
84343;SDS011;74531;43.224;0.132;2023-12-20T10:15:28;68.68;;;63.08;;
84343;SDS011;74531;43.224;0.132;2023-12-20T10:17:56;8.05;;;4.57;;
84343;SDS011;74531;43.224;0.132;2023-12-20T10:20:23;36.60;;;33.20;;
84343;SDS011;74531;43.224;0.132;2023-12-20T10:22:49;6.88;;;5.22;;
84343;SDS011;74531;43.224;0.132;2023-12-20T10:25:19;10.52;;;7.55;;
84343;SDS011;74531;43.224;0.132;2023-12-20T10:27:46;27.17;;;24.58;;
84343;SDS011;74531;43.224;0.132;2023-12-20T10:30:13;250.63;;;140.27;;
84343;SDS011;74531;43.224;0.132;2023-12-20T10:32:40;532.45;;;327.00;;
84343;SDS011;74531;43.224;0.132;2023-12-20T10:35:08;121.13;;;73.32;;
84343;SDS011;74531;43.224;0.132;2023-12-20T10:37:37;36.85;;;25.50;;
84343;SDS011;74531;43.224;0.132;2023-12-20T10:40:06;218.50;;;186.52;;
84343;SDS011;74531;43.224;0.132;2023-12-20T10:42:33;51.25;;;42.30;;
84343;SDS011;74531;43.224;0.132;2023-12-20T10:45:01;83.18;;;57.17;;
84343;SDS011;74531;43.224;0.132;2023-12-20T10:47:27;73.30;;;53.75;;
84343;SDS011;74531;43.224;0.132;2023-12-20T10:49:54;39.33;;;35.00;;
84343;SDS011;74531;43.224;0.132;2023-12-20T10:52:20;91.50;;;83.53;;
84343;SDS011;74531;43.224;0.132;2023-12-20T10:54:49;14.57;;;13.20;;
84343;SDS011;74531;43.224;0.132;2023-12-20T10:57:15;20.67;;;18.60;;
84343;SDS011;74531;43.224;0.132;2023-12-20T10:59:44;28.63;;;25.60;;
84343;SDS011;74531;43.224;0.132;2023-12-20T11:02:12;403.20;;;241.93;;
84343;SDS011;74531;43.224;0.132;2023-12-20T11:04:43;1429.10;;;776.63;;
84343;SDS011;74531;43.224;0.132;2023-12-20T11:07:19;1127.50;;;678.70;;
84343;SDS011;74531;43.224;0.132;2023-12-20T11:12:23;287.92;;;200.20;;
84343;SDS011;74531;43.224;0.132;2023-12-20T11:14:52;56.95;;;47.08;;
84343;SDS011;74531;43.224;0.132;2023-12-20T11:17:22;175.73;;;148.57;;
84343;SDS011;74531;43.224;0.132;2023-12-20T11:22:21;77.25;;;61.88;;
84343;SDS011;74531;43.224;0.132;2023-12-20T11:24:47;41.85;;;33.42;;
84343;SDS011;74531;43.224;0.132;2023-12-20T11:27:14;114.75;;;103.40;;
84343;SDS011;74531;43.224;0.132;2023-12-20T11:29:40;30.70;;;27.13;;
84343;SDS011;74531;43.224;0.132;2023-12-20T11:37:22;11.82;;;7.38;;
84343;SDS011;74531;43.224;0.132;2023-12-20T11:39:55;27.52;;;24.77;;
84343;SDS011;74531;43.224;0.132;2023-12-20T11:42:21;11.40;;;6.97;;
84343;SDS011;74531;43.224;0.132;2023-12-20T11:44:48;22.48;;;20.38;;
84343;SDS011;74531;43.224;0.132;2023-12-20T11:47:14;20.83;;;13.60;;
84343;SDS011;74531;43.224;0.132;2023-12-20T11:49:41;16.38;;;8.80;;
84343;SDS011;74531;43.224;0.132;2023-12-20T11:52:07;17.27;;;11.00;;
84343;SDS011;74531;43.224;0.132;2023-12-20T11:54:33;9.65;;;3.75;;
84343;SDS011;74531;43.224;0.132;2023-12-20T11:56:59;22.20;;;19.92;;
84343;SDS011;74531;43.224;0.132;2023-12-20T11:59:26;28.05;;;25.17;;
84343;SDS011;74531;43.224;0.132;2023-12-20T12:01:52;25.33;;;21.42;;
84343;SDS011;74531;43.224;0.132;2023-12-20T12:04:21;33.78;;;30.27;;
84343;SDS011;74531;43.224;0.132;2023-12-20T12:06:47;12.75;;;7.82;;
84343;SDS011;74531;43.224;0.132;2023-12-20T12:09:13;15.48;;;10.63;;
84343;SDS011;74531;43.224;0.132;2023-12-20T12:11:40;13.05;;;10.15;;
84343;SDS011;74531;43.224;0.132;2023-12-20T12:14:06;11.88;;;5.93;;
84343;SDS011;74531;43.224;0.132;2023-12-20T12:16:33;14.05;;;7.05;;
84343;SDS011;74531;43.224;0.132;2023-12-20T12:18:59;16.42;;;9.90;;
84343;SDS011;74531;43.224;0.132;2023-12-20T12:21:26;11.40;;;3.97;;
84343;SDS011;74531;43.224;0.132;2023-12-20T12:23:53;9.05;;;4.00;;
84343;SDS011;74531;43.224;0.132;2023-12-20T12:26:20;9.18;;;2.80;;
84343;SDS011;74531;43.224;0.132;2023-12-20T12:28:46;10.00;;;3.47;;
84343;SDS011;74531;43.224;0.132;2023-12-20T12:31:13;16.20;;;8.27;;
84343;SDS011;74531;43.224;0.132;2023-12-20T12:33:42;8.63;;;2.90;;
84343;SDS011;74531;43.224;0.132;2023-12-20T12:36:10;16.05;;;4.40;;
84343;SDS011;74531;43.224;0.132;2023-12-20T12:38:37;14.98;;;7.75;;
84343;SDS011;74531;43.224;0.132;2023-12-20T12:41:07;15.23;;;9.13;;
84343;SDS011;74531;43.224;0.132;2023-12-20T12:43:35;18.00;;;10.60;;
84343;SDS011;74531;43.224;0.132;2023-12-20T12:46:02;17.58;;;15.13;;
84343;SDS011;74531;43.224;0.132;2023-12-20T12:48:29;12.82;;;8.35;;
84343;SDS011;74531;43.224;0.132;2023-12-20T12:50:55;12.57;;;8.70;;
84343;SDS011;74531;43.224;0.132;2023-12-20T12:53:24;16.70;;;11.88;;
84343;SDS011;74531;43.224;0.132;2023-12-20T12:55:51;13.38;;;4.47;;
84343;SDS011;74531;43.224;0.132;2023-12-20T12:58:18;18.80;;;16.42;;
84343;SDS011;74531;43.224;0.132;2023-12-20T13:00:44;13.73;;;4.72;;
84343;SDS011;74531;43.224;0.132;2023-12-20T13:03:11;9.98;;;6.15;;
84343;SDS011;74531;43.224;0.132;2023-12-20T13:05:37;11.77;;;4.85;;
84343;SDS011;74531;43.224;0.132;2023-12-20T13:08:04;11.00;;;3.33;;
84343;SDS011;74531;43.224;0.132;2023-12-20T13:10:30;8.50;;;3.08;;
84343;SDS011;74531;43.224;0.132;2023-12-20T13:12:56;13.45;;;5.97;;
84343;SDS011;74531;43.224;0.132;2023-12-20T13:15:22;8.90;;;4.90;;
84343;SDS011;74531;43.224;0.132;2023-12-20T13:17:48;9.77;;;3.92;;
84343;SDS011;74531;43.224;0.132;2023-12-20T13:20:15;16.20;;;9.98;;
84343;SDS011;74531;43.224;0.132;2023-12-20T13:22:41;27.02;;;13.13;;
84343;SDS011;74531;43.224;0.132;2023-12-20T13:25:08;15.07;;;6.32;;
84343;SDS011;74531;43.224;0.132;2023-12-20T13:27:34;10.82;;;3.67;;
84343;SDS011;74531;43.224;0.132;2023-12-20T13:30:00;9.13;;;3.80;;
84343;SDS011;74531;43.224;0.132;2023-12-20T13:32:26;20.85;;;13.13;;
84343;SDS011;74531;43.224;0.132;2023-12-20T13:34:52;8.75;;;3.67;;
84343;SDS011;74531;43.224;0.132;2023-12-20T13:37:18;9.20;;;3.67;;
84343;SDS011;74531;43.224;0.132;2023-12-20T13:39:44;11.68;;;6.97;;
84343;SDS011;74531;43.224;0.132;2023-12-20T13:42:11;5.97;;;3.35;;
84343;SDS011;74531;43.224;0.132;2023-12-20T13:44:37;6.65;;;2.42;;
84343;SDS011;74531;43.224;0.132;2023-12-20T13:47:03;5.97;;;2.33;;
84343;SDS011;74531;43.224;0.132;2023-12-20T13:49:30;5.63;;;2.47;;
84343;SDS011;74531;43.224;0.132;2023-12-20T13:51:56;8.38;;;5.80;;
84343;SDS011;74531;43.224;0.132;2023-12-20T13:54:24;5.88;;;1.80;;
84343;SDS011;74531;43.224;0.132;2023-12-20T13:56:50;11.18;;;6.40;;
84343;SDS011;74531;43.224;0.132;2023-12-20T13:59:16;434.65;;;314.48;;
84343;SDS011;74531;43.224;0.132;2023-12-20T14:01:42;13.93;;;9.88;;
84343;SDS011;74531;43.224;0.132;2023-12-20T14:04:08;19.83;;;18.00;;
84343;SDS011;74531;43.224;0.132;2023-12-20T14:06:36;26.33;;;23.85;;
84343;SDS011;74531;43.224;0.132;2023-12-20T14:09:02;10.00;;;8.90;;
84343;SDS011;74531;43.224;0.132;2023-12-20T14:11:28;7.78;;;2.67;;
84343;SDS011;74531;43.224;0.132;2023-12-20T14:13:54;6.22;;;4.35;;
84343;SDS011;74531;43.224;0.132;2023-12-20T14:16:24;16.20;;;8.18;;
84343;SDS011;74531;43.224;0.132;2023-12-20T14:18:50;21.30;;;19.38;;
84343;SDS011;74531;43.224;0.132;2023-12-20T14:21:17;6.05;;;4.00;;
84343;SDS011;74531;43.224;0.132;2023-12-20T14:23:45;15.55;;;8.82;;
84343;SDS011;74531;43.224;0.132;2023-12-20T14:26:11;8.13;;;5.00;;
84343;SDS011;74531;43.224;0.132;2023-12-20T14:28:40;5.75;;;1.70;;
84343;SDS011;74531;43.224;0.132;2023-12-20T14:31:07;6.18;;;2.60;;
84343;SDS011;74531;43.224;0.132;2023-12-20T14:33:36;29.65;;;25.63;;
84343;SDS011;74531;43.224;0.132;2023-12-20T14:36:04;12.15;;;10.73;;
84343;SDS011;74531;43.224;0.132;2023-12-20T14:38:33;8.02;;;5.75;;
84343;SDS011;74531;43.224;0.132;2023-12-20T14:41:00;13.40;;;9.82;;